Time;durP1;ratioP1;P1;durP2;ratioP2;P2;SDS_P1;SDS_P2;PMS_P1;PMS_P2;Temp;Humidity;BMP_temperature;BMP_pressure;BME280_temperature;BME280_humidity;BME280_pressure;Samples;Min_cycle;Max_cycle;Signal;HPM_P1;HPM_P2
2023/06/03 00:01:40;;;;;;;2.77;1.00;;;;;;;10.84;58.13;101490.23;5134050;56;1138974;-72
2023/06/03 00:06:45;;;;;;;1.07;0.90;;;;;;;10.85;58.28;101491.90;5133449;56;1138906;-70
2023/06/03 00:11:51;;;;;;;2.83;1.30;;;;;;;10.99;58.43;101495.50;5082390;56;1138798;-73
2023/06/03 00:16:58;;;;;;;3.60;2.20;;;;;;;11.01;58.42;101491.77;4982471;57;1138707;-76
2023/06/03 00:22:04;;;;;;;5.27;1.93;;;;;;;10.94;58.20;101498.42;5048953;57;1138723;-77
2023/06/03 00:27:09;;;;;;;4.70;2.20;;;;;;;10.84;58.34;101499.48;5047889;57;1138558;-75
2023/06/03 00:32:15;;;;;;;5.53;1.90;;;;;;;10.88;58.26;101501.45;4969363;57;1138652;-74
2023/06/03 00:37:20;;;;;;;3.95;1.95;;;;;;;10.90;58.68;101498.23;4998910;57;1138751;-79
2023/06/03 00:42:26;;;;;;;5.27;2.10;;;;;;;10.69;58.14;101499.13;5029594;57;1138615;-77
2023/06/03 00:47:32;;;;;;;5.73;2.40;;;;;;;10.47;58.59;101502.23;5044597;57;1138614;-78
2023/06/03 00:52:40;;;;;;;5.10;2.57;;;;;;;10.49;59.58;101503.47;5061122;57;1138544;-77
2023/06/03 00:57:47;;;;;;;7.63;2.30;;;;;;;10.51;59.72;101513.02;4906838;58;1138836;-72
2023/06/03 01:02:52;;;;;;;6.90;3.00;;;;;;;10.32;59.37;101516.40;4972328;57;1138696;-76
2023/06/03 01:08:20;;;;;;;7.07;4.00;;;;;;;10.04;59.46;101527.75;5050103;56;1139056;-70
2023/06/03 01:13:31;;;;;;;7.90;3.83;;;;;;;9.57;60.16;101530.98;5143211;55;1136914;-77
2023/06/03 01:18:39;;;;;;;5.70;3.65;;;;;;;9.54;61.46;101528.05;5133336;55;1134642;-78
2023/06/03 01:23:48;;;;;;;11.33;3.80;;;;;;;9.71;62.14;101529.72;5152903;55;1134395;-76
2023/06/03 01:28:53;;;;;;;8.70;3.90;;;;;;;9.77;61.80;101530.70;5058411;56;1136701;-76
2023/06/03 01:33:59;;;;;;;13.63;4.50;;;;;;;9.75;61.64;101527.29;5087335;56;1134421;-76
2023/06/03 01:39:05;;;;;;;12.20;5.00;;;;;;;9.77;62.00;101532.88;5063453;56;1136881;-77
2023/06/03 01:44:11;;;;;;;16.52;5.92;;;;;;;9.66;61.45;101536.58;5044014;57;1136761;-74
2023/06/03 01:49:17;;;;;;;18.25;7.20;;;;;;;9.44;61.43;101540.93;5043758;57;1136632;-72
2023/06/03 01:54:25;;;;;;;13.93;4.42;;;;;;;9.32;62.18;101538.14;5067119;56;1136571;-74
2023/06/03 01:59:31;;;;;;;10.77;4.70;;;;;;;9.37;62.94;101546.16;5107600;55;1136563;-73
2023/06/03 02:04:37;;;;;;;7.77;3.27;;;;;;;9.43;62.76;101547.15;5116866;56;1136539;-78
2023/06/03 02:09:42;;;;;;;24.27;4.90;;;;;;;9.22;62.23;101540.42;5139565;56;1134349;-73
2023/06/03 02:14:53;;;;;;;61.23;6.90;;;;;;;9.15;62.16;101548.31;5118285;56;1136567;-74
2023/06/03 02:19:57;;;;;;;18.77;4.40;;;;;;;8.98;61.98;101543.10;5180791;55;1136509;-73
2023/06/03 02:25:03;;;;;;;4.93;2.97;;;;;;;8.88;62.84;101559.02;5181509;55;1136676;-79
2023/06/03 02:30:10;;;;;;;11.70;2.37;;;;;;;8.86;63.40;101568.34;5129741;56;1134522;-71
2023/06/03 02:35:16;;;;;;;6.23;2.37;;;;;;;8.75;62.85;101568.06;5098899;56;1136981;-72
2023/06/03 02:40:22;;;;;;;11.15;2.50;;;;;;;8.64;63.22;101569.97;5117387;57;1134516;-78
2023/06/03 02:45:28;;;;;;;11.43;2.80;;;;;;;8.65;63.84;101578.73;5097217;57;1136748;-74
2023/06/03 02:50:34;;;;;;;11.77;2.77;;;;;;;8.56;63.37;101580.05;5104540;55;1136668;-73
2023/06/03 02:55:40;;;;;;;3.00;1.97;;;;;;;8.40;64.31;101593.66;5141592;56;1136604;-75
2023/06/03 03:00:46;;;;;;;7.27;2.60;;;;;;;8.33;64.54;101594.89;5130324;55;1217476;-74
2023/06/03 03:05:54;;;;;;;6.83;2.53;;;;;;;8.31;64.86;101591.45;5129364;56;1134382;-78
2023/06/03 03:10:59;;;;;;;11.12;3.27;;;;;;;8.36;65.22;101594.28;5130697;55;1134721;-78
2023/06/03 03:16:05;;;;;;;18.97;3.03;;;;;;;8.20;65.02;101599.05;5141398;55;1175358;-78
2023/06/03 03:21:11;;;;;;;4.00;1.80;;;;;;;8.01;66.54;101595.16;5142893;55;1136782;-78
2023/06/03 03:26:21;;;;;;;7.05;1.72;;;;;;;8.07;67.39;101602.77;5122881;55;1135258;-73
2023/06/03 03:31:28;;;;;;;6.33;1.80;;;;;;;8.25;67.70;101614.19;5114535;56;1134523;-71
2023/06/03 03:36:36;;;;;;;3.90;2.13;;;;;;;8.20;67.17;101605.18;4967848;57;1134399;-69
2023/06/03 03:41:46;;;;;;;6.40;2.03;;;;;;;7.87;67.32;101619.55;4961567;57;1134472;-73
2023/06/03 03:47:01;;;;;;;6.07;2.60;;;;;;;7.48;68.77;101628.91;5088736;56;1135149;-70
2023/06/03 03:52:07;;;;;;;9.00;2.63;;;;;;;7.23;70.79;101625.69;5131812;56;1230655;-75
2023/06/03 03:57:16;;;;;;;7.33;2.90;;;;;;;7.06;71.81;101633.03;5136950;56;1175894;-73
2023/06/03 04:02:23;;;;;;;9.08;3.12;;;;;;;7.02;72.45;101627.08;5135944;56;1238991;-72
2023/06/03 04:07:31;;;;;;;7.43;2.17;;;;;;;7.44;75.16;101623.86;5124564;56;1239496;-73
2023/06/03 04:12:37;;;;;;;8.70;2.37;;;;;;;7.44;75.16;101623.86;5007508;57;1252191;-69
2023/06/03 04:17:44;;;;;;;9.08;2.22;;;;;;;7.69;76.35;101620.44;4993393;56;1251340;-70
2023/06/03 04:22:52;;;;;;;1.40;1.30;;;;;;;7.89;77.20;101617.70;5074364;56;1241696;-74
2023/06/03 04:27:58;;;;;;;2.80;1.60;;;;;;;8.10;77.40;101627.63;5096315;56;1249521;-68
2023/06/03 04:33:06;;;;;;;2.53;1.37;;;;;;;8.25;78.25;101632.13;5125003;55;1252052;-69
2023/06/03 04:38:12;;;;;;;3.97;1.37;;;;;;;8.41;77.76;101629.14;5209311;55;1253542;-71
2023/06/03 04:43:22;;;;;;;4.22;1.75;;;;;;;8.55;78.02;101635.52;5109842;56;1136725;-69
2023/06/03 04:48:30;;;;;;;3.43;1.23;;;;;;;8.68;78.26;101637.45;5071274;56;1252597;-71
2023/06/03 04:53:42;;;;;;;5.07;1.37;;;;;;;8.84;78.02;101636.19;5114424;55;1174078;-71
2023/06/03 04:58:43;;;;;;;5.20;1.33;;;;;;;8.93;78.44;101636.15;5119026;56;1136636;-71
2023/06/03 05:03:52;;;;;;;7.40;1.20;;;;;;;9.09;78.37;101642.31;5094630;56;1136899;-71
2023/06/03 05:08:58;;;;;;;2.07;1.40;;;;;;;9.24;77.85;101638.00;5084762;56;1136677;-69
2023/06/03 05:14:06;;;;;;;4.33;1.10;;;;;;;9.35;78.11;101652.31;5184684;55;1136591;-71
2023/06/03 05:19:12;;;;;;;3.70;1.40;;;;;;;9.52;78.03;101637.72;5209402;55;1136633;-74
2023/06/03 05:24:18;;;;;;;4.67;1.60;;;;;;;9.63;78.27;101633.16;5210221;55;1188561;-71
2023/06/03 05:29:24;;;;;;;3.08;1.17;;;;;;;9.89;77.95;101635.67;5139362;55;1136615;-74
2023/06/03 05:34:30;;;;;;;1.50;0.83;;;;;;;10.10;76.60;101634.42;5102201;55;1136752;-71
2023/06/03 05:39:36;;;;;;;15.63;2.30;;;;;;;10.35;75.71;101637.01;5062028;56;1223554;-71
2023/06/03 05:44:43;;;;;;;3.17;1.07;;;;;;;10.45;75.13;101634.19;5122135;56;1140845;-72
2023/06/03 05:49:48;;;;;;;2.50;0.93;;;;;;;10.62;75.56;101639.33;5132409;56;1138628;-72
2023/06/03 05:54:54;;;;;;;0.77;0.60;;;;;;;10.89;76.00;101646.92;5132276;56;1138764;-72
2023/06/03 06:00:00;;;;;;;9.77;1.23;;;;;;;11.02;74.18;101639.55;5152341;55;1138518;-71
2023/06/03 06:05:08;;;;;;;8.07;0.70;;;;;;;11.22;73.76;101639.17;5122157;56;1138661;-72
2023/06/03 06:10:14;;;;;;;6.43;1.00;;;;;;;11.45;71.68;101635.09;5142263;55;1143705;-73
2023/06/03 06:15:20;;;;;;;3.37;1.00;;;;;;;11.55;71.85;101638.84;5210656;55;1138858;-73
2023/06/03 06:20:26;;;;;;;8.05;1.05;;;;;;;11.81;71.13;101644.67;5230643;55;1138649;-75
2023/06/03 06:25:32;;;;;;;0.53;0.53;;;;;;;12.12;71.15;101640.86;5139578;55;1138612;-71
2023/06/03 06:30:37;;;;;;;0.57;0.57;;;;;;;12.24;66.75;101645.82;5044329;56;1138714;-71
2023/06/03 06:35:44;;;;;;;0.70;0.70;;;;;;;12.39;66.25;101650.58;4987093;57;1138747;-72
2023/06/03 06:40:51;;;;;;;13.03;1.40;;;;;;;12.47;60.44;101649.12;5002093;58;1138715;-74
2023/06/03 06:45:57;;;;;;;1.90;0.80;;;;;;;12.45;57.70;101648.38;5015470;57;1140970;-73
2023/06/03 06:51:03;;;;;;;4.67;0.77;;;;;;;12.50;57.64;101644.94;5006470;56;1138757;-73
2023/06/03 06:56:11;;;;;;;7.90;0.57;;;;;;;12.66;59.45;101638.97;5034244;56;1138766;-75
2023/06/03 07:01:24;;;;;;;1.95;0.62;;;;;;;12.93;57.83;101635.35;5033117;56;1138879;-70
2023/06/03 07:06:32;;;;;;;3.80;1.10;;;;;;;13.04;56.17;101644.27;5025789;57;1138897;-75
2023/06/03 07:11:48;;;;;;;7.30;0.90;;;;;;;13.14;58.51;101638.33;4976651;57;1139013;-78
2023/06/03 07:16:55;;;;;;;6.73;0.67;;;;;;;13.38;56.32;101633.95;5030675;57;1138633;-71
2023/06/03 07:22:02;;;;;;;1.23;0.60;;;;;;;13.39;52.17;101648.93;5061709;57;1138630;-78
2023/06/03 07:27:09;;;;;;;1.33;0.63;;;;;;;13.47;55.29;101643.91;5098797;56;1138788;-74
2023/06/03 07:32:16;;;;;;;4.43;1.37;;;;;;;13.57;52.00;101636.98;5111327;56;1138582;-78
2023/06/03 07:37:22;;;;;;;8.80;0.90;;;;;;;13.75;54.95;101633.44;4999566;57;1139925;-75
2023/06/03 07:42:29;;;;;;;1.92;0.80;;;;;;;14.07;53.93;101633.25;5062131;57;1138924;-73
2023/06/03 07:47:39;;;;;;;2.83;0.47;;;;;;;14.37;54.31;101634.56;5039695;57;1138921;-74
2023/06/03 07:52:44;;;;;;;4.43;0.97;;;;;;;14.46;50.38;101631.25;5042017;57;1138804;-77
2023/06/03 07:57:50;;;;;;;8.70;0.70;;;;;;;14.63;50.53;101630.81;5062020;57;1138812;-75
2023/06/03 08:02:56;;;;;;;2.73;0.90;;;;;;;14.72;49.56;101623.44;5041863;57;1138667;-78
2023/06/03 08:08:06;;;;;;;12.43;0.90;;;;;;;14.94;50.16;101621.78;5043528;56;1138813;-73
2023/06/03 08:13:13;;;;;;;4.13;0.70;;;;;;;15.14;51.52;101625.88;5114237;56;1140903;-74
2023/06/03 08:18:40;;;;;;;2.87;0.80;;;;;;;15.07;47.40;101625.17;5124173;56;1138642;-75
2023/06/03 08:23:45;;;;;;;1.97;1.20;;;;;;;15.20;49.68;101626.37;5126095;56;1138742;-78
2023/06/03 08:28:51;;;;;;;3.15;0.40;;;;;;;15.53;47.56;101630.34;5045600;56;1138885;-70
2023/06/03 08:33:57;;;;;;;1.93;0.70;;;;;;;15.73;45.63;101626.95;5106862;56;1138730;-75
2023/06/03 08:39:03;;;;;;;1.00;0.67;;;;;;;15.76;46.23;101629.34;5126747;56;1138810;-78
2023/06/03 08:44:40;;;;;;;5.27;0.80;;;;;;;15.78;45.30;101624.73;4957703;57;1138701;-76
2023/06/03 08:50:07;;;;;;;4.43;1.43;;;;;;;15.92;47.61;101629.42;5120319;56;1138713;-77
2023/06/03 08:55:16;;;;;;;1.20;0.80;;;;;;;16.28;47.81;101622.37;5042321;57;1138910;-75
2023/06/03 09:00:27;;;;;;;4.62;0.60;;;;;;;16.47;44.57;101630.53;5058825;56;1138782;-72
2023/06/03 09:05:34;;;;;;;3.10;0.60;;;;;;;16.69;42.21;101627.38;5037787;57;1138893;-74
2023/06/03 09:10:40;;;;;;;3.40;0.50;;;;;;;16.69;42.21;101627.38;5072435;56;1138768;-73
2023/06/03 09:15:46;;;;;;;1.23;0.50;;;;;;;16.75;40.15;101610.34;5146627;56;1138593;-75
2023/06/03 09:20:52;;;;;;;2.87;0.70;;;;;;;16.77;42.28;101612.88;5116201;56;1138718;-76
2023/06/03 09:25:58;;;;;;;0.97;0.40;;;;;;;16.79;39.47;101603.77;5050302;56;1138805;-70
2023/06/03 09:31:05;;;;;;;1.67;0.60;;;;;;;16.90;37.63;101596.14;5061175;57;1138766;-76
2023/06/03 09:36:13;;;;;;;7.20;0.53;;;;;;;16.98;36.93;101600.31;5124744;56;1138926;-73
2023/06/03 09:41:28;;;;;;;1.00;0.50;;;;;;;17.14;33.75;101597.98;5137548;56;1138732;-73
2023/06/03 09:46:36;;;;;;;2.83;0.70;;;;;;;17.11;36.77;101599.59;5137352;56;1138772;-70
2023/06/03 09:51:45;;;;;;;4.27;0.80;;;;;;;17.34;38.14;101589.55;5157464;56;1138736;-74
2023/06/03 09:56:51;;;;;;;1.73;0.70;;;;;;;17.46;38.39;101591.12;5131992;56;1138762;-79
2023/06/03 10:01:57;;;;;;;9.63;0.73;;;;;;;17.47;38.90;101582.12;5133965;56;1138758;-75
2023/06/03 10:07:12;;;;;;;0.70;0.50;;;;;;;17.74;37.62;101581.97;5157649;56;1138798;-74
2023/06/03 10:12:29;;;;;;;1.33;0.50;;;;;;;18.02;38.92;101577.14;5079079;56;1138757;-74
2023/06/03 10:17:34;;;;;;;3.35;0.60;;;;;;;18.22;36.79;101584.65;5048378;56;1138821;-73
2023/06/03 10:22:42;;;;;;;2.20;0.77;;;;;;;18.20;35.60;101579.44;5072805;56;1138659;-75
2023/06/03 10:27:48;;;;;;;1.70;0.60;;;;;;;18.36;35.24;101569.97;5097684;56;1138945;-76
2023/06/03 10:32:57;;;;;;;0.90;0.50;;;;;;;18.47;35.47;101575.19;5136950;56;1138764;-76
2023/06/03 10:38:05;;;;;;;0.67;0.60;;;;;;;18.59;36.55;101557.98;5157597;56;1139261;-77
2023/06/03 10:43:12;;;;;;;2.27;0.60;;;;;;;18.67;32.87;101556.73;5137392;56;1138559;-74
2023/06/03 10:48:20;;;;;;;1.47;0.53;;;;;;;18.47;33.17;101557.28;5137443;56;1138826;-76
2023/06/03 10:53:39;;;;;;;3.55;0.78;;;;;;;18.54;31.11;101547.66;5137450;56;1138788;-77
2023/06/03 10:58:48;;;;;;;0.67;0.50;;;;;;;18.60;32.97;101543.09;5067337;56;1138767;-74
2023/06/03 11:04:09;;;;;;;1.52;0.55;;;;;;;18.75;32.04;101546.15;5051550;57;1138682;-74
2023/06/03 11:09:18;;;;;;;2.00;0.40;;;;;;;18.67;31.83;101533.11;5054946;56;1138726;-73
2023/06/03 11:14:38;;;;;;;3.20;0.68;;;;;;;18.83;32.19;101532.84;5086032;56;1138685;-72
2023/06/03 11:19:55;;;;;;;3.55;0.55;;;;;;;18.91;30.37;101526.75;5072505;56;1138588;-78
2023/06/03 11:25:01;;;;;;;0.90;0.57;;;;;;;19.05;31.10;101533.45;5060854;56;1138678;-76
2023/06/03 11:30:07;;;;;;;1.10;0.60;;;;;;;19.27;28.98;101523.14;5055175;56;1138595;-72
2023/06/03 11:35:27;;;;;;;0.72;0.53;;;;;;;19.39;32.39;101521.61;5099708;56;1138665;-70
2023/06/03 11:40:40;;;;;;;0.50;0.50;;;;;;;19.59;30.82;101524.51;5071787;56;1138686;-74
2023/06/03 11:45:46;;;;;;;2.40;0.85;;;;;;;19.63;31.29;101526.74;5042091;56;1138610;-74
2023/06/03 11:50:54;;;;;;;6.22;0.53;;;;;;;19.77;31.67;101524.52;5041271;56;1138554;-73
2023/06/03 11:56:08;;;;;;;4.08;0.60;;;;;;;19.90;30.23;101519.59;5142554;56;1138880;-72
2023/06/03 12:01:18;;;;;;;8.58;0.70;;;;;;;19.85;29.54;101519.23;5125947;56;1138679;-77
2023/06/03 12:06:24;;;;;;;9.73;0.62;;;;;;;19.85;30.94;101520.58;5104622;56;1138852;-75
2023/06/03 12:11:42;;;;;;;0.78;0.45;;;;;;;20.11;31.66;101517.42;5061718;56;1138653;-72
2023/06/03 12:16:44;;;;;;;3.50;0.45;;;;;;;20.20;30.50;101506.22;5040988;57;1138969;-74
2023/06/03 12:22:00;;;;;;;0.88;0.50;;;;;;;20.16;30.14;101502.19;5084298;56;1138646;-77
2023/06/03 12:27:25;;;;;;;2.92;0.68;;;;;;;20.17;27.70;101497.97;5098245;56;1138729;-75
2023/06/03 12:32:31;;;;;;;0.85;0.55;;;;;;;20.26;29.45;101490.33;4959933;57;1138690;-74
2023/06/03 12:37:38;;;;;;;3.80;0.50;;;;;;;20.35;29.71;101487.18;5054265;56;1138704;-75
2023/06/03 12:42:44;;;;;;;7.87;0.65;;;;;;;20.54;29.68;101482.11;5062411;56;1138999;-75
2023/06/03 12:47:50;;;;;;;0.62;0.40;;;;;;;20.68;29.06;101481.51;5098726;56;1138811;-80
2023/06/03 12:52:55;;;;;;;2.05;0.50;;;;;;;20.75;28.74;101477.19;5083869;56;1138581;-76
2023/06/03 12:58:01;;;;;;;0.70;0.60;;;;;;;20.88;29.73;101477.56;5061455;57;1138794;-75
2023/06/03 13:03:07;;;;;;;14.93;9.28;;;;;;;20.98;27.57;101472.89;5042022;56;1138741;-74
2023/06/03 13:08:13;;;;;;;1.22;1.17;;;;;;;20.73;27.74;101459.03;5091076;56;1140804;-75
2023/06/03 13:13:20;;;;;;;5.30;4.95;;;;;;;20.77;28.00;101463.58;5139859;56;1138888;-79
2023/06/03 13:18:26;;;;;;;6.17;2.20;;;;;;;20.81;27.35;101453.66;5132014;56;1138658;-72
2023/06/03 13:23:31;;;;;;;5.67;2.70;;;;;;;20.86;26.97;101452.69;5066229;56;1138790;-79
2023/06/03 13:28:37;;;;;;;5.87;0.88;;;;;;;20.83;27.51;101448.97;5112878;56;1138857;-75
2023/06/03 13:33:43;;;;;;;1.82;0.90;;;;;;;20.89;26.12;101441.61;5159982;56;1138738;-74
2023/06/03 13:38:49;;;;;;;2.62;0.85;;;;;;;20.86;27.32;101431.67;5139797;56;1138771;-78
2023/06/03 13:43:54;;;;;;;2.90;0.50;;;;;;;21.00;28.02;101424.31;5139449;56;1138657;-76
2023/06/03 13:49:00;;;;;;;1.15;0.57;;;;;;;21.14;28.08;101426.86;5118247;56;1138604;-80
2023/06/03 13:54:06;;;;;;;0.90;0.90;;;;;;;21.21;28.56;101414.47;5040738;57;1138631;-81
2023/06/03 13:59:12;;;;;;;4.00;2.72;;;;;;;21.19;27.80;101420.02;5041172;56;1138751;-78
2023/06/03 14:04:17;;;;;;;0.95;0.88;;;;;;;21.11;26.39;101420.45;5039954;56;1138556;-73
2023/06/03 14:09:23;;;;;;;0.78;0.68;;;;;;;20.91;27.14;101418.59;5061698;57;1138594;-78
2023/06/03 14:14:29;;;;;;;9.43;4.58;;;;;;;20.94;26.24;101416.89;5073586;56;1138746;-70
2023/06/03 14:19:35;;;;;;;8.60;2.95;;;;;;;20.89;27.44;101413.88;5126364;55;1138717;-69
2023/06/03 14:24:43;;;;;;;4.72;0.98;;;;;;;20.79;27.81;101405.92;5139013;56;1138823;-71
2023/06/03 14:29:48;;;;;;;4.10;0.80;;;;;;;20.85;27.67;101401.25;5107204;56;1138705;-69
2023/06/03 14:34:54;;;;;;;5.25;0.70;;;;;;;21.01;28.98;101399.10;5115512;56;1138855;-73
2023/06/03 14:39:59;;;;;;;3.37;0.68;;;;;;;21.11;28.39;101401.12;5100781;56;1138622;-70
2023/06/03 14:45:06;;;;;;;2.85;0.50;;;;;;;21.22;27.83;101391.44;5105979;56;1138553;-69
2023/06/03 14:50:11;;;;;;;2.52;0.82;;;;;;;21.36;27.89;101389.42;5082945;56;1138545;-69
2023/06/03 14:55:17;;;;;;;6.10;0.98;;;;;;;21.49;28.59;101381.34;5069140;56;1138879;-69
2023/06/03 15:00:23;;;;;;;0.60;0.60;;;;;;;21.59;27.52;101376.61;5092395;56;1139051;-70
2023/06/03 15:05:28;;;;;;;5.15;0.70;;;;;;;21.59;28.15;101379.31;5079798;56;1138733;-72
2023/06/03 15:10:35;;;;;;;1.90;0.60;;;;;;;21.65;27.52;101374.09;5074748;56;1138670;-71
2023/06/03 15:15:40;;;;;;;5.92;0.70;;;;;;;21.51;27.33;101369.91;5070515;56;1138780;-71
2023/06/03 15:20:47;;;;;;;0.75;0.55;;;;;;;21.30;26.86;101367.21;5038672;56;1138722;-74
2023/06/03 15:25:53;;;;;;;3.17;1.20;;;;;;;21.29;27.82;101354.77;5081342;56;1138860;-68
2023/06/03 15:30:58;;;;;;;4.80;0.45;;;;;;;21.40;28.67;101346.34;5183416;56;1138697;-76
2023/06/03 15:36:05;;;;;;;9.18;0.72;;;;;;;21.52;27.26;101342.83;5125690;56;1138644;-73
2023/06/03 15:41:10;;;;;;;1.95;1.00;;;;;;;21.29;26.74;101345.34;5123657;56;1138544;-70
2023/06/03 15:46:16;;;;;;;5.92;1.32;;;;;;;21.19;27.26;101341.13;4958867;58;1138948;-76
2023/06/03 15:51:22;;;;;;;4.16;0.60;;;;;;;21.15;28.00;101333.88;5158739;56;1138804;-74
2023/06/03 15:56:28;;;;;;;3.40;0.53;;;;;;;21.05;27.59;101334.56;5098717;55;1138799;-73
2023/06/03 16:01:34;;;;;;;1.73;1.27;;;;;;;20.91;27.85;101328.50;5042138;57;1138680;-75
2023/06/03 16:06:40;;;;;;;2.37;1.30;;;;;;;20.89;27.64;101323.79;5089647;56;1138999;-72
2023/06/03 16:11:46;;;;;;;1.25;0.50;;;;;;;20.97;28.32;101316.55;5126527;56;1138332;-73
2023/06/03 16:16:51;;;;;;;3.50;0.50;;;;;;;21.01;26.87;101319.76;5110283;56;1138603;-73
2023/06/03 16:21:57;;;;;;;4.87;0.70;;;;;;;21.01;27.74;101314.38;5082794;56;1138888;-71
2023/06/03 16:27:03;;;;;;;2.52;0.80;;;;;;;21.01;27.22;101316.56;5127541;56;1138636;-70
2023/06/03 16:32:08;;;;;;;0.78;0.70;;;;;;;20.92;26.87;101309.52;5141494;56;1138400;-71
2023/06/03 16:37:14;;;;;;;2.42;0.60;;;;;;;20.88;27.67;101305.97;4944513;58;1138948;-69
2023/06/03 16:42:20;;;;;;;1.55;0.90;;;;;;;20.80;27.87;101304.09;5036764;56;1138954;-71
2023/06/03 16:47:25;;;;;;;5.05;0.90;;;;;;;20.87;28.02;101299.75;5071614;56;1138625;-73
2023/06/03 16:52:31;;;;;;;1.72;0.55;;;;;;;20.97;27.64;101296.89;4954593;57;1138917;-71
2023/06/03 16:57:36;;;;;;;4.08;0.95;;;;;;;20.93;26.78;101292.34;5048108;57;1138981;-72
2023/06/03 17:02:42;;;;;;;3.40;0.60;;;;;;;20.84;27.24;101290.66;5040370;57;1139244;-66
2023/06/03 17:07:48;;;;;;;0.78;0.70;;;;;;;20.76;27.21;101284.45;5098590;57;1138648;-72
2023/06/03 17:12:54;;;;;;;4.10;1.40;;;;;;;20.83;28.28;101282.77;5141617;57;1138959;-70
2023/06/03 17:17:59;;;;;;;1.60;0.70;;;;;;;20.82;28.29;101285.11;5046841;57;1138778;-68
2023/06/03 17:23:05;;;;;;;2.27;1.00;;;;;;;20.73;28.07;101286.12;5027525;56;1138707;-73
2023/06/03 17:28:11;;;;;;;5.52;1.10;;;;;;;20.56;28.18;101288.78;5031589;57;1138748;-74
2023/06/03 17:33:18;;;;;;;14.98;1.20;;;;;;;20.44;28.38;101288.77;5066904;57;1138680;-67
2023/06/03 17:38:23;;;;;;;14.83;2.33;;;;;;;20.35;28.81;101289.70;5054925;57;1140642;-71
2023/06/03 17:43:29;;;;;;;5.73;1.40;;;;;;;20.31;29.21;101284.34;4989130;57;1140617;-70
2023/06/03 17:48:35;;;;;;;5.28;1.32;;;;;;;20.19;28.55;101289.14;5027149;56;1138591;-69
2023/06/03 17:53:41;;;;;;;5.25;1.10;;;;;;;20.05;29.35;101286.23;4988399;57;1138742;-70
2023/06/03 17:58:46;;;;;;;2.47;2.10;;;;;;;19.92;29.32;101292.06;5081534;56;1138652;-70
2023/06/03 18:03:52;;;;;;;17.12;2.27;;;;;;;19.82;29.87;101289.51;5056814;57;1138753;-72
2023/06/03 18:08:57;;;;;;;12.68;2.60;;;;;;;19.73;30.21;101285.58;4966926;56;1140805;-75
2023/06/03 18:14:03;;;;;;;2.13;1.03;;;;;;;19.63;30.68;101291.07;5097771;56;1140864;-73
2023/06/03 18:19:09;;;;;;;11.08;1.65;;;;;;;19.58;31.17;101290.70;5078369;57;1138678;-69
2023/06/03 18:24:15;;;;;;;10.28;2.42;;;;;;;19.47;31.15;101294.47;5008568;57;1140797;-72
2023/06/03 18:29:21;;;;;;;17.87;2.73;;;;;;;19.38;31.74;101298.10;5051847;57;1141012;-69
2023/06/03 18:34:26;;;;;;;5.97;1.82;;;;;;;19.31;32.37;101298.37;5067404;57;1140984;-71
2023/06/03 18:39:32;;;;;;;7.55;1.92;;;;;;;19.22;32.44;101300.66;5011829;56;1138653;-73
2023/06/03 18:44:37;;;;;;;2.92;1.50;;;;;;;19.11;33.52;101299.05;5124740;56;1138664;-69
2023/06/03 18:49:44;;;;;;;33.67;7.65;;;;;;;19.00;33.64;101292.59;5114554;56;1138663;-69
2023/06/03 18:54:49;;;;;;;20.65;5.85;;;;;;;18.85;34.36;101305.70;5050745;56;1140884;-72
2023/06/03 18:59:56;;;;;;;10.18;2.10;;;;;;;18.73;36.09;101308.27;5049016;57;1140801;-68
2023/06/03 19:05:02;;;;;;;15.40;2.02;;;;;;;18.50;36.19;101309.16;5081502;56;1140728;-71
2023/06/03 19:10:08;;;;;;;14.08;1.80;;;;;;;18.41;36.60;101305.22;5132116;56;1140877;-69
2023/06/03 19:15:14;;;;;;;14.70;2.65;;;;;;;18.39;36.60;101305.36;5034608;57;1140767;-72
2023/06/03 19:20:24;;;;;;;23.03;2.00;;;;;;;18.39;37.62;101300.01;5029887;56;1140777;-70
2023/06/03 19:25:28;;;;;;;37.17;3.15;;;;;;;18.39;38.05;101308.54;5119897;56;1140666;-69
2023/06/03 19:30:33;;;;;;;12.43;2.70;;;;;;;18.33;38.03;101311.34;5079383;56;1140837;-73
2023/06/03 19:35:39;;;;;;;10.78;3.37;;;;;;;18.24;37.99;101310.38;5138588;56;1140793;-74
2023/06/03 19:40:44;;;;;;;14.50;3.30;;;;;;;18.18;38.25;101311.49;5107540;56;1140711;-71
2023/06/03 19:45:50;;;;;;;15.83;3.52;;;;;;;18.14;38.73;101314.11;5068758;57;1140604;-73
2023/06/03 19:50:56;;;;;;;8.03;4.55;;;;;;;18.09;38.93;101319.05;4996399;58;1140731;-70
2023/06/03 19:56:02;;;;;;;36.45;16.82;;;;;;;17.93;39.12;101324.55;5049692;57;1139076;-73
2023/06/03 20:01:07;;;;;;;8.05;4.60;;;;;;;17.75;40.02;101327.64;5114861;57;1142579;-72
2023/06/03 20:06:13;;;;;;;20.23;6.13;;;;;;;17.62;40.64;101335.11;5055148;56;1138763;-70
2023/06/03 20:11:19;;;;;;;5.33;2.52;;;;;;;17.53;41.43;101334.64;5036722;57;1140933;-71
2023/06/03 20:16:24;;;;;;;16.00;4.87;;;;;;;17.42;42.11;101330.28;5169103;56;1138872;-69
2023/06/03 20:21:30;;;;;;;21.17;8.20;;;;;;;17.20;43.18;101330.12;5110229;57;1140726;-68
2023/06/03 20:26:36;;;;;;;11.00;5.93;;;;;;;16.99;43.94;101328.56;5069673;57;1140867;-74
2023/06/03 20:31:42;;;;;;;11.25;6.92;;;;;;;16.88;44.78;101330.41;4873027;57;1140835;-71
2023/06/03 20:36:47;;;;;;;11.17;4.60;;;;;;;16.82;45.11;101333.62;5010105;56;1140740;-76
2023/06/03 20:41:53;;;;;;;13.97;5.03;;;;;;;16.77;45.86;101339.89;5005746;57;1140485;-76
2023/06/03 20:46:59;;;;;;;10.97;6.00;;;;;;;16.70;46.11;101337.90;5017724;58;1140985;-75
2023/06/03 20:52:05;;;;;;;25.13;5.53;;;;;;;16.67;46.55;101340.84;4991075;58;1140853;-70
2023/06/03 20:57:11;;;;;;;23.70;7.57;;;;;;;16.54;46.96;101338.40;4955334;57;1140829;-75
2023/06/03 21:02:17;;;;;;;16.08;4.40;;;;;;;16.41;47.16;101349.34;4955680;57;1141199;-71
2023/06/03 21:07:22;;;;;;;22.03;7.47;;;;;;;16.30;47.85;101344.12;5004800;57;1140719;-72
2023/06/03 21:12:30;;;;;;;17.47;5.47;;;;;;;16.18;48.60;101341.20;5117259;56;1140593;-70
2023/06/03 21:17:36;;;;;;;12.73;3.93;;;;;;;16.11;49.21;101342.70;4977497;57;1140592;-73
2023/06/03 21:22:41;;;;;;;9.13;4.30;;;;;;;15.96;49.19;101347.56;5028599;57;1140893;-68
2023/06/03 21:27:47;;;;;;;11.80;4.13;;;;;;;15.78;49.60;101349.14;5131296;56;1138784;-69
2023/06/03 21:32:52;;;;;;;12.13;2.77;;;;;;;15.63;50.04;101353.98;5098261;56;1141475;-68
2023/06/03 21:37:58;;;;;;;8.30;3.37;;;;;;;15.44;50.70;101356.48;5159572;56;1140807;-70
2023/06/03 21:43:04;;;;;;;7.07;2.97;;;;;;;15.26;51.13;101357.56;5121984;56;1139049;-73
2023/06/03 21:48:10;;;;;;;10.63;3.12;;;;;;;15.09;51.47;101361.64;5126173;56;1138631;-68
2023/06/03 21:53:15;;;;;;;8.65;2.65;;;;;;;14.94;52.04;101359.39;5073170;56;1140825;-70
2023/06/03 21:58:21;;;;;;;14.13;6.05;;;;;;;14.80;53.03;101365.86;5061395;56;1138624;-68
2023/06/03 22:03:26;;;;;;;11.47;4.43;;;;;;;14.68;53.23;101362.36;5024132;57;1140853;-72
2023/06/03 22:08:32;;;;;;;8.67;3.00;;;;;;;14.61;53.53;101355.01;5100250;56;1141023;-74
2023/06/03 22:13:38;;;;;;;7.27;3.13;;;;;;;14.50;53.84;101357.70;5159811;56;1138789;-74
2023/06/03 22:18:44;;;;;;;11.30;2.70;;;;;;;14.36;54.44;101361.44;5139230;56;1138627;-74
2023/06/03 22:23:50;;;;;;;10.23;2.97;;;;;;;14.27;54.90;101356.35;5139334;56;1140728;-69
2023/06/03 22:28:55;;;;;;;17.17;2.70;;;;;;;14.12;55.67;101364.22;5145861;56;1140768;-66
2023/06/03 22:34:01;;;;;;;33.20;3.80;;;;;;;13.88;56.01;101355.04;5125891;56;1140769;-73
2023/06/03 22:39:06;;;;;;;12.90;2.70;;;;;;;13.84;57.12;101356.72;5125834;56;1140814;-72
2023/06/03 22:44:13;;;;;;;9.10;2.18;;;;;;;13.82;57.76;101362.63;5133446;56;1140910;-71
2023/06/03 22:49:18;;;;;;;5.78;2.47;;;;;;;13.70;57.78;101356.46;5133391;56;1138596;-74
2023/06/03 22:54:24;;;;;;;7.53;2.73;;;;;;;13.56;57.78;101357.53;5053789;56;1138605;-72
2023/06/03 22:59:30;;;;;;;11.75;2.47;;;;;;;13.46;58.48;101360.98;4871415;59;1138731;-72
2023/06/03 23:04:35;;;;;;;7.23;3.33;;;;;;;13.41;59.00;101359.18;5070303;57;1140835;-73
2023/06/03 23:09:41;;;;;;;10.97;4.93;;;;;;;13.26;59.31;101356.72;5123636;56;1138825;-74
2023/06/03 23:14:46;;;;;;;9.57;5.10;;;;;;;13.20;59.54;101354.52;5136993;56;1140759;-70